Parsival — V2MS — position and weather

sailwx.info

Track history (hours):
 
Tides and Currents Weather Stations Pressure Air Temp Water Temp Dewpoint Dewpoint Depression Visibility Wind Speed Wind Dir Waves Ship Positions

Parsival

Last reported at 2014-Nov-28 19:30 UTC. Time now 2014-Nov-29 05:08 UTC.
Position N 40°11' E 006°05'.

; draft 5 m.

Type: Cargo ship. MMSI: 304010881.

Date/timePositionNaut miles runAvg speedWind from/ knotsBaromVisibWave heightAir tempDewpointWater temp
2014-Nov-28 19:30N 40°11' E 006°05'128 8.1
2014-Nov-28 03:34N 39°06' E 003°42'10 9.3
2014-Nov-28 02:32N 39°01' E 003°31'9 9.6
2014-Nov-28 01:33N 38°56' E 003°21'9 9.4
2014-Nov-28 00:34N 38°51' E 003°10'9 9.2
2014-Nov-27 23:33N 38°47' E 003°00'9 9.1
2014-Nov-27 22:33N 38°42' E 002°50'9 9.1
2014-Nov-27 21:33N 38°38' E 002°40'9 9.0
2014-Nov-27 20:33N 38°33' E 002°30'9 9.1
2014-Nov-27 19:33N 38°28' E 002°20'10 9.5
2014-Nov-27 18:32N 38°23' E 002°09'383 9.3
2014-Nov-26 01:10N 35°56' W 005°15'4 6.9
2014-Nov-26 00:34N 35°54' W 005°19'0 0.1
2014-Nov-25 23:32N 35°54' W 005°19'0 0.3
2014-Nov-25 22:34N 35°54' W 005°19'3 3.0
2014-Nov-25 21:34N 35°56' W 005°21'222 8.4
2014-Nov-24 19:11N 37°15' W 009°40'6 8.9
2014-Nov-24 18:33N 37°20' W 009°42'9 8.8
2014-Nov-24 17:33N 37°29' W 009°44'17 8.8
2014-Nov-24 15:33N 37°46' W 009°49'  
Track history (hours):
 
Tides and Currents Weather Stations Pressure Air Temp Water Temp Dewpoint Dewpoint Depression Visibility Wind Speed Wind Dir Waves Ship Positions

Parsival

Last reported at 2014-Nov-28 19:30 UTC. Time now 2014-Nov-29 05:08 UTC.
Position N 40°11' E 006°05'.

; draft 5 m.

Type: Cargo ship. MMSI: 304010881.

Date/timePositionNaut miles runAvg speedWind from/ knotsBaromVisibWave heightAir tempDewpointWater temp
2014-Nov-28 19:30N 40°11' E 006°05'128 8.1
2014-Nov-28 03:34N 39°06' E 003°42'10 9.3
2014-Nov-28 02:32N 39°01' E 003°31'9 9.6
2014-Nov-28 01:33N 38°56' E 003°21'9 9.4
2014-Nov-28 00:34N 38°51' E 003°10'9 9.2
2014-Nov-27 23:33N 38°47' E 003°00'9 9.1
2014-Nov-27 22:33N 38°42' E 002°50'9 9.1
2014-Nov-27 21:33N 38°38' E 002°40'9 9.0
2014-Nov-27 20:33N 38°33' E 002°30'9 9.1
2014-Nov-27 19:33N 38°28' E 002°20'10 9.5
2014-Nov-27 18:32N 38°23' E 002°09'383 9.3
2014-Nov-26 01:10N 35°56' W 005°15'4 6.9
2014-Nov-26 00:34N 35°54' W 005°19'0 0.1
2014-Nov-25 23:32N 35°54' W 005°19'0 0.3
2014-Nov-25 22:34N 35°54' W 005°19'3 3.0
2014-Nov-25 21:34N 35°56' W 005°21'222 8.4
2014-Nov-24 19:11N 37°15' W 009°40'6 8.9
2014-Nov-24 18:33N 37°20' W 009°42'9 8.8
2014-Nov-24 17:33N 37°29' W 009°44'17 8.8
2014-Nov-24 15:33N 37°46' W 009°49'  

Dump ship's entire track history